Time;durP1;ratioP1;P1;durP2;ratioP2;P2;SDS_P1;SDS_P2;PMS_P1;PMS_P2;Temp;Humidity;BMP_temperature;BMP_pressure;BME280_temperature;BME280_humidity;BME280_pressure;Samples;Min_cycle;Max_cycle;Signal;HPM_P1;HPM_P2
2022/02/18 00:02:27;;;;;;;4.20;1.10;;;6.90;99.90;7.60;96303.00;;;;5117008;28;20206;-83
2022/02/18 00:05:16;;;;;;;3.83;0.80;;;6.80;99.90;7.60;96305.00;;;;5116108;28;20226;-83
2022/02/18 00:08:06;;;;;;;2.20;1.10;;;6.70;99.90;7.20;96311.00;;;;5119277;28;20207;-84
2022/02/18 00:10:55;;;;;;;1.70;0.80;;;6.60;99.90;7.30;96307.00;;;;5117382;28;20199;-84
2022/02/18 00:13:44;;;;;;;3.53;0.93;;;6.50;99.90;7.30;96292.00;;;;5111199;28;20211;-84
2022/02/18 00:16:34;;;;;;;2.03;0.90;;;6.40;99.90;7.40;96307.00;;;;5117061;28;20203;-84
2022/02/18 00:19:23;;;;;;;1.10;0.80;;;6.40;99.90;7.40;96314.00;;;;5114761;28;20561;-85
2022/02/18 00:22:12;;;;;;;3.47;1.00;;;6.40;99.90;7.50;96298.00;;;;5114599;28;20230;-84
2022/02/18 00:25:01;;;;;;;2.43;0.97;;;6.50;99.90;7.50;96298.00;;;;5119269;27;20278;-84
2022/02/18 00:27:50;;;;;;;3.60;1.50;;;6.50;99.90;7.20;96301.00;;;;5119120;27;20232;-83
2022/02/18 00:30:39;;;;;;;8.73;1.30;;;6.40;99.90;7.40;96288.00;;;;5116110;28;20199;-82
2022/02/18 00:33:29;;;;;;;1.10;0.80;;;6.40;99.90;7.40;96291.00;;;;5113997;28;20202;-84
2022/02/18 00:36:18;;;;;;;3.10;1.33;;;6.40;99.90;7.30;96304.00;;;;5113567;28;20682;-83
2022/02/18 00:39:07;;;;;;;3.20;0.90;;;6.40;99.90;7.20;96285.00;;;;5100481;28;20675;-82
2022/02/18 00:41:59;;;;;;;3.13;0.80;;;6.40;99.90;7.20;96290.00;;;;5113526;28;20233;-83
2022/02/18 00:44:47;;;;;;;3.90;1.30;;;6.30;99.90;7.10;96277.00;;;;5113514;28;20218;-82
2022/02/18 00:47:36;;;;;;;5.27;1.30;;;6.30;99.90;7.20;96292.00;;;;5105125;28;20210;-82
2022/02/18 00:50:27;;;;;;;3.93;1.23;;;6.20;99.90;7.30;96300.00;;;;5112409;28;20600;-83
2022/02/18 00:53:15;;;;;;;5.77;1.43;;;6.30;99.90;7.30;96280.00;;;;5112860;28;20206;-83
2022/02/18 00:56:05;;;;;;;4.70;1.13;;;6.30;99.90;7.40;96290.00;;;;5114061;28;20256;-83
2022/02/18 00:58:54;;;;;;;5.97;1.23;;;6.30;99.90;7.50;96296.00;;;;5116255;28;20206;-83
2022/02/18 01:01:43;;;;;;;5.13;1.20;;;6.40;99.90;7.80;96308.00;;;;5111260;28;20226;-83
2022/02/18 01:04:32;;;;;;;2.20;1.10;;;6.50;98.70;8.00;96270.00;;;;5115007;28;20230;-83
2022/02/18 01:07:23;;;;;;;6.40;1.67;;;6.60;97.40;8.20;96312.00;;;;5113966;28;20382;-84
2022/02/18 01:10:14;;;;;;;9.83;1.57;;;6.80;96.00;8.40;96326.00;;;;5102021;28;20273;-82
2022/02/18 01:13:03;;;;;;;1.10;1.00;;;7.00;94.30;8.40;96333.00;;;;5123954;27;20651;-82
2022/02/18 01:15:52;;;;;;;5.23;1.50;;;6.60;94.40;8.40;96352.00;;;;5107663;28;20222;-82
2022/02/18 01:18:40;;;;;;;1.33;0.80;;;7.20;94.20;8.40;96353.00;;;;5124081;28;20198;-81
2022/02/18 01:21:30;;;;;;;3.60;1.03;;;7.30;93.60;8.30;96368.00;;;;5133727;28;20206;-82
2022/02/18 01:24:20;;;;;;;3.00;1.40;;;7.30;94.30;8.20;96378.00;;;;5127343;27;20225;-82
2022/02/18 01:27:09;;;;;;;2.07;1.10;;;7.30;94.90;7.80;96375.00;;;;5117983;27;20198;-82
2022/02/18 01:29:58;;;;;;;5.10;1.03;;;6.70;97.40;7.70;96398.00;;;;5115367;28;20600;-82
2022/02/18 01:32:47;;;;;;;3.00;1.30;;;7.00;97.20;7.70;96402.00;;;;5114594;28;20221;-83
2022/02/18 01:35:35;;;;;;;2.07;1.00;;;6.90;97.60;7.50;96414.00;;;;5113867;28;20691;-82
2022/02/18 01:38:24;;;;;;;2.70;0.97;;;6.80;98.60;7.40;96425.00;;;;5125783;28;20199;-82
2022/02/18 01:41:14;;;;;;;5.13;1.43;;;6.70;99.30;7.10;96418.00;;;;5117244;28;20226;-83
2022/02/18 01:44:05;;;;;;;2.20;0.80;;;6.50;99.90;7.10;96429.00;;;;5113863;28;20685;-83
2022/02/18 01:46:54;;;;;;;5.57;1.73;;;6.40;99.90;7.10;96418.00;;;;5115510;28;20206;-83
2022/02/18 01:49:43;;;;;;;4.50;1.43;;;6.30;99.90;6.90;96435.00;;;;5111837;28;20202;-82
2022/02/18 01:52:35;;;;;;;4.30;1.10;;;6.20;99.90;6.90;96421.00;;;;5111969;28;20603;-83
2022/02/18 01:55:25;;;;;;;1.00;0.90;;;6.10;99.90;6.70;96426.00;;;;5116273;28;20417;-83
2022/02/18 01:58:16;;;;;;;2.67;1.40;;;6.00;99.90;6.30;96415.00;;;;5114538;28;20225;-83
2022/02/18 02:01:04;;;;;;;5.07;1.60;;;5.90;99.90;6.40;96440.00;;;;5114051;28;20226;-83
2022/02/18 02:03:53;;;;;;;4.03;1.40;;;5.80;99.90;6.40;96432.00;;;;5111737;28;20198;-83
2022/02/18 02:06:42;;;;;;;4.03;1.20;;;5.70;99.90;6.40;96435.00;;;;5107883;28;20206;-83
2022/02/18 02:09:34;;;;;;;1.70;0.70;;;5.60;99.90;6.20;96435.00;;;;5115071;27;20229;-83
2022/02/18 02:12:23;;;;;;;4.80;1.00;;;5.60;99.90;6.30;96434.00;;;;5122319;27;20193;-83
2022/02/18 02:15:13;;;;;;;5.10;1.63;;;5.50;99.90;6.30;96439.00;;;;5126746;27;20226;-83
2022/02/18 02:18:03;;;;;;;2.37;0.97;;;5.40;99.90;5.80;96436.00;;;;5109937;28;20209;-83
2022/02/18 02:20:52;;;;;;;3.50;1.50;;;5.40;99.90;6.00;96434.00;;;;5113206;28;20272;-83
2022/02/18 02:23:42;;;;;;;2.90;1.23;;;5.30;99.90;6.20;96438.00;;;;5115520;27;20217;-84
2022/02/18 02:26:31;;;;;;;5.20;1.00;;;5.30;99.90;6.20;96443.00;;;;5110084;27;20199;-83
2022/02/18 02:29:20;;;;;;;3.13;1.20;;;5.30;99.90;6.20;96451.00;;;;5100147;28;20202;-83
2022/02/18 02:32:09;;;;;;;4.03;1.43;;;5.30;99.90;5.90;96446.00;;;;5112825;28;20316;-82
2022/02/18 02:34:58;;;;;;;4.30;1.47;;;5.20;99.90;5.70;96449.00;;;;5112865;28;20229;-84
2022/02/18 02:37:47;;;;;;;3.73;1.67;;;5.10;99.90;5.80;96451.00;;;;5113609;28;20202;-83
2022/02/18 02:40:37;;;;;;;4.90;1.50;;;5.00;99.90;5.90;96458.00;;;;5113550;28;20198;-83
2022/02/18 02:43:27;;;;;;;6.13;1.57;;;5.00;99.90;5.90;96457.00;;;;5114533;28;20218;-82
2022/02/18 02:46:16;;;;;;;10.30;1.50;;;5.00;99.90;6.00;96450.00;;;;5113063;28;20206;-83
2022/02/18 02:49:05;;;;;;;8.20;1.60;;;5.00;99.90;6.00;96461.00;;;;5115986;28;20206;-82
2022/02/18 02:51:55;;;;;;;3.83;1.40;;;5.10;99.90;6.00;96478.00;;;;5126880;28;20289;-82
2022/02/18 02:54:44;;;;;;;7.77;1.63;;;5.00;99.90;5.70;96470.00;;;;5108429;28;20225;-82
2022/02/18 02:57:35;;;;;;;7.20;1.37;;;5.00;99.90;5.80;96464.00;;;;5122900;27;20224;-83
2022/02/18 03:00:23;;;;;;;5.17;1.30;;;5.00;99.90;6.20;96480.00;;;;5132587;27;20198;-83
2022/02/18 03:03:13;;;;;;;6.43;1.70;;;5.10;99.90;6.50;96478.00;;;;5131108;27;20253;-84
2022/02/18 03:06:02;;;;;;;5.27;1.10;;;5.20;99.90;6.50;96472.00;;;;5132267;27;20232;-84
2022/02/18 03:08:52;;;;;;;3.93;1.27;;;5.30;99.90;5.90;96480.00;;;;5126091;27;20581;-84
2022/02/18 03:11:41;;;;;;;4.37;1.27;;;5.30;99.90;6.10;96476.00;;;;5129264;27;20209;-84
2022/02/18 03:14:31;;;;;;;5.87;1.47;;;5.30;99.90;6.10;96469.00;;;;5125745;27;20215;-83
2022/02/18 03:17:20;;;;;;;7.23;1.73;;;5.30;99.90;6.20;96472.00;;;;5132590;27;20205;-84
2022/02/18 03:20:10;;;;;;;2.70;1.10;;;5.30;99.90;6.00;96465.00;;;;5132945;27;20659;-84
2022/02/18 03:22:59;;;;;;;3.73;1.27;;;5.30;99.90;6.20;96483.00;;;;5131573;27;20237;-84
2022/02/18 03:25:48;;;;;;;6.77;1.47;;;5.20;99.90;6.10;96465.00;;;;5125776;27;20286;-84
2022/02/18 03:28:40;;;;;;;7.70;1.60;;;5.30;99.90;6.20;96467.00;;;;5124427;27;20322;-84
2022/02/18 03:31:30;;;;;;;8.33;2.37;;;5.20;99.90;6.10;96467.00;;;;5122397;27;20220;-83
2022/02/18 03:34:19;;;;;;;6.57;1.73;;;5.30;99.90;6.00;96456.00;;;;5131744;27;20218;-84
2022/02/18 03:37:08;;;;;;;1.80;1.20;;;5.20;99.90;5.50;96467.00;;;;5132959;27;20201;-84
2022/02/18 03:39:56;;;;;;;4.33;1.57;;;5.20;99.90;5.80;96476.00;;;;5132162;27;20202;-84
2022/02/18 03:42:46;;;;;;;7.13;1.60;;;5.10;99.90;6.00;96479.00;;;;5128850;27;20225;-85
2022/02/18 03:45:36;;;;;;;4.30;1.50;;;5.10;99.90;6.00;96468.00;;;;5122889;28;20234;-84
2022/02/18 03:48:26;;;;;;;7.80;1.90;;;5.10;99.90;5.90;96486.00;;;;5127371;28;20235;-84
2022/02/18 03:51:15;;;;;;;1.60;1.23;;;5.10;99.90;5.10;96496.00;;;;5129854;28;20201;-83
2022/02/18 03:54:04;;;;;;;9.37;1.87;;;5.00;99.90;5.20;96509.00;;;;5131695;28;20204;-84
2022/02/18 03:56:54;;;;;;;3.90;1.23;;;4.90;99.90;5.60;96500.00;;;;5132001;28;20210;-84
2022/02/18 03:59:43;;;;;;;3.23;1.90;;;4.80;99.90;5.80;96503.00;;;;5132883;28;20202;-84
2022/02/18 04:02:32;;;;;;;3.00;1.77;;;4.90;99.90;5.70;96503.00;;;;5130428;28;20209;-84
2022/02/18 04:05:22;;;;;;;8.37;2.30;;;4.90;99.90;5.40;96500.00;;;;5123237;28;20595;-83
2022/02/18 04:08:11;;;;;;;5.57;1.53;;;4.80;99.90;5.30;96513.00;;;;5128848;28;20229;-83
2022/02/18 04:11:00;;;;;;;7.50;1.50;;;4.80;99.90;5.60;96518.00;;;;5131870;28;20525;-84
2022/02/18 04:13:49;;;;;;;4.73;1.50;;;4.70;99.90;5.60;96505.00;;;;5119263;28;20419;-82
2022/02/18 04:16:38;;;;;;;4.10;1.77;;;4.70;99.90;5.40;96494.00;;;;5106845;28;20217;-85
2022/02/18 04:19:27;;;;;;;4.53;3.43;;;4.70;99.90;5.50;96494.00;;;;5131470;28;20581;-83
2022/02/18 04:22:29;;;;;;;4.17;1.77;;;4.70;99.90;5.60;96488.00;;;;5132045;28;20217;-84
2022/02/18 04:25:18;;;;;;;2.67;2.00;;;4.70;99.90;5.60;96498.00;;;;5131099;28;20233;-84
2022/02/18 04:28:07;;;;;;;1.33;1.23;;;4.70;99.90;5.10;96473.00;;;;5130887;28;20201;-83
2022/02/18 04:30:56;;;;;;;5.47;1.50;;;4.60;99.90;5.00;96479.00;;;;5143384;28;20205;-83
2022/02/18 04:33:45;;;;;;;3.60;1.60;;;4.60;99.90;5.40;96478.00;;;;5135368;28;20531;-84
2022/02/18 04:36:34;;;;;;;6.23;2.07;;;4.60;99.90;5.50;96474.00;;;;5132925;28;20224;-83
2022/02/18 04:39:24;;;;;;;4.40;1.70;;;4.60;99.90;5.10;96473.00;;;;5120796;28;20202;-83
2022/02/18 04:42:13;;;;;;;2.73;1.30;;;4.60;99.90;5.10;96468.00;;;;5131747;27;20198;-84
2022/02/18 04:45:02;;;;;;;2.57;1.83;;;4.50;99.90;4.60;96470.00;;;;5137012;27;20221;-83
2022/02/18 04:47:51;;;;;;;6.00;1.63;;;4.50;99.90;4.80;96478.00;;;;5137336;27;20213;-84
2022/02/18 04:50:40;;;;;;;3.27;1.23;;;4.40;99.90;5.30;96477.00;;;;5137893;27;20585;-84
2022/02/18 04:53:39;;;;;;;8.53;1.87;;;4.50;99.90;5.50;96485.00;;;;5133828;27;20194;-83
2022/02/18 04:56:30;;;;;;;2.43;1.30;;;4.60;99.90;5.60;96491.00;;;;5135216;27;20206;-83
2022/02/18 04:59:19;;;;;;;9.87;1.80;;;4.60;99.90;5.50;96507.00;;;;5134299;27;20206;-83
2022/02/18 05:02:08;;;;;;;2.23;1.53;;;4.60;99.90;5.50;96515.00;;;;5134311;27;20456;-83
2022/02/18 05:04:59;;;;;;;11.93;2.47;;;4.60;99.90;5.50;96511.00;;;;5134801;27;20221;-83
2022/02/18 05:07:47;;;;;;;3.73;1.63;;;4.60;99.90;5.20;96513.00;;;;5132346;27;20591;-83
2022/02/18 05:10:36;;;;;;;4.20;1.73;;;4.60;99.90;5.40;96509.00;;;;5132880;27;20463;-82
2022/02/18 05:13:27;;;;;;;3.00;1.20;;;4.60;99.90;5.40;96499.00;;;;5130940;27;20427;-83
2022/02/18 05:16:16;;;;;;;5.83;2.10;;;4.60;99.90;5.40;96493.00;;;;5129792;27;20205;-82
2022/02/18 05:19:06;;;;;;;7.60;2.10;;;4.60;99.90;4.80;96484.00;;;;5128179;27;20198;-83
2022/02/18 05:21:55;;;;;;;9.83;2.07;;;4.50;99.90;5.00;96492.00;;;;5127917;27;20202;-82
2022/02/18 05:24:44;;;;;;;7.07;1.47;;;4.50;99.90;5.30;96527.00;;;;5133113;27;20217;-82
2022/02/18 05:27:32;;;;;;;3.83;1.93;;;4.50;99.90;5.40;96506.00;;;;5133269;27;20206;-81
2022/02/18 05:30:23;;;;;;;3.63;1.50;;;4.50;99.90;5.20;96518.00;;;;5136947;27;20210;-82
2022/02/18 05:33:12;;;;;;;3.80;1.70;;;4.50;99.90;5.30;96519.00;;;;5121002;27;20205;-82
2022/02/18 05:36:01;;;;;;;4.80;1.87;;;4.50;99.90;5.20;96517.00;;;;5124988;27;20228;-82
2022/02/18 05:38:50;;;;;;;6.27;2.20;;;4.40;99.90;5.30;96519.00;;;;5130643;27;21007;-82
2022/02/18 05:41:39;;;;;;;4.17;1.70;;;4.40;99.90;5.30;96533.00;;;;5127885;27;20574;-82
2022/02/18 05:44:31;;;;;;;5.10;1.93;;;4.40;99.90;5.30;96536.00;;;;5123397;27;20233;-82
2022/02/18 05:47:21;;;;;;;4.90;1.70;;;4.40;99.90;5.20;96514.00;;;;5124800;27;20554;-82
2022/02/18 05:50:12;;;;;;;5.70;1.80;;;4.40;99.90;5.30;96500.00;;;;5125437;27;20217;-82
2022/02/18 05:53:01;;;;;;;4.47;2.03;;;4.40;99.90;5.20;96492.00;;;;5122817;27;20194;-82
2022/02/18 05:55:49;;;;;;;7.13;2.00;;;4.40;99.90;5.10;96495.00;;;;5123425;27;20217;-82
2022/02/18 05:58:38;;;;;;;4.93;1.50;;;4.40;99.90;4.60;96491.00;;;;5121985;27;20210;-84
2022/02/18 06:01:27;;;;;;;2.37;1.70;;;4.30;99.90;4.60;96519.00;;;;5130224;27;20210;-83
2022/02/18 06:04:18;;;;;;;2.40;1.60;;;4.20;99.90;5.00;96508.00;;;;5125362;27;20233;-83
2022/02/18 06:07:07;;;;;;;9.47;3.20;;;4.20;99.90;4.90;96527.00;;;;5122161;27;20204;-82
2022/02/18 06:09:55;;;;;;;5.10;1.90;;;4.20;99.90;5.10;96526.00;;;;5126273;27;20194;-82
2022/02/18 06:12:44;;;;;;;5.57;1.90;;;4.20;99.90;5.10;96547.00;;;;5131094;27;20447;-82
2022/02/18 06:15:33;;;;;;;7.90;1.77;;;4.30;99.90;5.10;96574.00;;;;5131282;27;20436;-82
2022/02/18 06:18:22;;;;;;;8.87;1.80;;;4.30;99.90;5.10;96553.00;;;;5120196;27;20205;-83
2022/02/18 06:21:12;;;;;;;4.27;1.67;;;4.30;99.90;5.20;96556.00;;;;5131820;27;20612;-83
2022/02/18 06:24:01;;;;;;;3.77;1.83;;;4.30;99.90;4.60;96550.00;;;;5133254;27;20249;-82
2022/02/18 06:26:50;;;;;;;7.27;2.77;;;4.30;99.90;4.50;96562.00;;;;5133829;27;20209;-82
2022/02/18 06:29:39;;;;;;;6.97;3.40;;;4.20;99.90;5.00;96577.00;;;;5128862;27;20697;-82
2022/02/18 06:32:28;;;;;;;5.37;2.07;;;4.20;99.90;5.20;96570.00;;;;5122270;27;20443;-82
2022/02/18 06:35:17;;;;;;;6.93;2.87;;;4.20;99.90;5.00;96578.00;;;;5127412;27;20452;-81
2022/02/18 06:38:07;;;;;;;5.97;2.83;;;4.30;99.90;5.40;96586.00;;;;5130789;27;20433;-80
2022/02/18 06:40:56;;;;;;;7.07;2.97;;;4.30;99.90;5.50;96580.00;;;;5133933;27;20201;-80
2022/02/18 06:43:45;;;;;;;8.67;4.80;;;4.40;99.90;5.10;96578.00;;;;5129437;27;20210;-80
2022/02/18 06:46:34;;;;;;;12.30;4.90;;;4.40;99.90;5.50;96604.00;;;;5129541;27;20300;-81
2022/02/18 06:49:22;;;;;;;11.97;6.13;;;4.50;99.90;4.90;96592.00;;;;5124283;27;20689;-80
2022/02/18 06:52:11;;;;;;;12.53;4.77;;;4.50;99.90;4.40;96578.00;;;;5124754;27;20209;-80
2022/02/18 06:55:01;;;;;;;9.13;3.50;;;4.40;99.90;5.10;96591.00;;;;5131714;27;20213;-79
2022/02/18 06:57:50;;;;;;;9.63;3.57;;;4.30;99.90;5.80;96595.00;;;;5134383;27;20570;-79
2022/02/18 07:00:39;;;;;;;8.07;3.40;;;4.40;99.90;6.00;96595.00;;;;5130499;27;20213;-80
2022/02/18 07:03:30;;;;;;;6.63;3.20;;;4.50;99.90;5.90;96607.00;;;;5126427;27;20253;-80
2022/02/18 07:06:19;;;;;;;11.57;3.33;;;4.70;99.90;6.00;96615.00;;;;5130601;27;20207;-81
2022/02/18 07:09:11;;;;;;;7.20;3.37;;;4.80;99.90;6.00;96623.00;;;;5132592;27;20198;-82
2022/02/18 07:12:01;;;;;;;16.07;2.47;;;4.90;99.90;5.90;96620.00;;;;5126496;27;20208;-82
2022/02/18 07:14:50;;;;;;;9.73;5.00;;;4.90;99.90;5.20;96611.00;;;;5127620;27;20682;-82
2022/02/18 07:17:41;;;;;;;8.17;3.30;;;4.90;99.90;5.50;96621.00;;;;5127971;27;20205;-81
2022/02/18 07:20:30;;;;;;;6.57;3.30;;;4.80;99.90;5.50;96611.00;;;;5135263;27;20438;-83
2022/02/18 07:23:19;;;;;;;8.00;2.83;;;4.80;99.90;5.70;96601.00;;;;5132204;27;20198;-82
2022/02/18 07:26:11;;;;;;;5.43;3.30;;;4.80;99.90;5.30;96588.00;;;;5136857;27;20217;-83
2022/02/18 07:29:05;;;;;;;5.37;3.43;;;4.70;99.90;4.90;96590.00;;;;5137606;27;20213;-83
2022/02/18 07:31:54;;;;;;;8.97;3.73;;;4.60;99.90;5.40;96590.00;;;;5133445;27;20198;-83
2022/02/18 07:34:43;;;;;;;7.83;2.70;;;4.60;99.90;5.30;96582.00;;;;5138329;27;20218;-82
2022/02/18 07:37:31;;;;;;;5.63;1.90;;;4.60;99.90;5.30;96581.00;;;;5140167;27;20206;-82
2022/02/18 07:40:20;;;;;;;8.03;2.40;;;4.60;99.90;5.90;96577.00;;;;5145556;27;20450;-81
2022/02/18 07:43:09;;;;;;;5.87;2.37;;;4.70;99.90;6.10;96588.00;;;;5150524;27;20190;-81
2022/02/18 07:46:08;;;;;;;8.93;2.20;;;4.80;99.90;6.10;96590.00;;;;5136956;28;20367;-83
2022/02/18 07:48:57;;;;;;;4.77;2.43;;;5.00;99.90;6.40;96582.00;;;;5131408;28;20222;-84
2022/02/18 07:51:46;;;;;;;3.40;1.70;;;5.10;99.90;6.50;96593.00;;;;5108223;28;20199;-82
2022/02/18 07:54:35;;;;;;;5.47;2.40;;;5.30;99.90;6.40;96588.00;;;;5104330;28;20233;-84
2022/02/18 07:57:24;;;;;;;2.83;1.70;;;5.40;99.90;6.70;96595.00;;;;5094900;28;20226;-83
2022/02/18 08:00:14;;;;;;;12.37;2.63;;;5.50;99.90;6.80;96591.00;;;;5091887;28;20210;-83
2022/02/18 08:03:05;;;;;;;5.17;2.80;;;5.60;99.90;6.60;96583.00;;;;5091283;28;20191;-83
2022/02/18 08:05:54;;;;;;;5.70;2.03;;;5.80;99.90;6.70;96596.00;;;;5094808;28;20586;-82
2022/02/18 08:08:43;;;;;;;8.10;2.80;;;5.90;99.90;6.90;96597.00;;;;5096081;28;20203;-81
2022/02/18 08:11:32;;;;;;;5.27;2.40;;;6.00;99.90;7.00;96604.00;;;;5088941;28;20203;-82
2022/02/18 08:14:21;;;;;;;6.97;3.13;;;6.10;99.90;7.00;96594.00;;;;5095877;28;20227;-83
2022/02/18 08:17:10;;;;;;;13.60;2.57;;;6.20;99.90;6.90;96593.00;;;;5097499;28;20211;-82
2022/02/18 08:20:00;;;;;;;11.20;2.40;;;6.20;99.90;7.30;96601.00;;;;5097218;28;20207;-83
2022/02/18 08:22:49;;;;;;;7.17;3.57;;;6.30;99.90;7.40;96593.00;;;;5095030;28;20215;-83
2022/02/18 08:25:38;;;;;;;9.43;2.67;;;6.40;99.90;7.50;96599.00;;;;5098518;28;20721;-83
2022/02/18 08:28:27;;;;;;;6.30;2.30;;;6.50;99.90;7.70;96599.00;;;;5102896;28;20209;-83
2022/02/18 08:31:16;;;;;;;5.80;3.07;;;6.60;99.90;7.70;96578.00;;;;5090802;28;20197;-83
2022/02/18 08:34:05;;;;;;;4.97;2.80;;;6.70;99.90;7.90;96584.00;;;;5095976;28;20207;-84
2022/02/18 08:36:55;;;;;;;5.37;3.47;;;6.80;99.90;8.50;96581.00;;;;5101140;28;20203;-84
2022/02/18 08:39:44;;;;;;;4.90;2.40;;;7.00;99.90;8.50;96580.00;;;;5096709;28;20218;-84
2022/02/18 08:42:33;;;;;;;6.63;2.53;;;7.20;99.90;8.10;96586.00;;;;5095964;28;20699;-83
2022/02/18 08:45:23;;;;;;;7.43;2.17;;;7.40;99.90;8.40;96586.00;;;;5098734;28;20231;-82
2022/02/18 08:48:11;;;;;;;8.33;2.90;;;7.50;99.90;8.50;96585.00;;;;5098793;28;20204;-83
2022/02/18 08:51:01;;;;;;;6.87;2.20;;;7.60;99.90;8.50;96586.00;;;;5097214;28;20208;-84
2022/02/18 08:53:51;;;;;;;4.37;2.00;;;7.70;99.90;8.40;96575.00;;;;5099944;28;20206;-83
2022/02/18 08:56:40;;;;;;;5.57;2.23;;;7.70;99.90;8.50;96587.00;;;;5095465;27;20208;-83
2022/02/18 08:59:29;;;;;;;5.43;1.80;;;7.80;99.90;8.90;96579.00;;;;5126374;27;20194;-83
2022/02/18 09:02:18;;;;;;;8.63;2.03;;;7.90;99.90;9.00;96581.00;;;;5130408;27;20197;-83
2022/02/18 09:05:09;;;;;;;6.73;2.87;;;8.00;99.90;9.30;96578.00;;;;5133367;27;20221;-82
2022/02/18 09:08:00;;;;;;;12.20;2.70;;;8.10;99.90;9.70;96553.00;;;;5124674;27;20203;-83
2022/02/18 09:10:50;;;;;;;12.03;2.53;;;8.30;99.90;10.10;96561.00;;;;5122253;27;20285;-83
2022/02/18 09:13:39;;;;;;;4.20;1.90;;;8.50;99.90;10.30;96578.00;;;;5133321;27;20200;-83
2022/02/18 09:16:28;;;;;;;7.20;2.67;;;8.70;99.90;10.40;96575.00;;;;5130083;27;20581;-83
2022/02/18 09:19:17;;;;;;;7.23;2.60;;;9.00;99.90;10.50;96574.00;;;;5140171;27;20667;-82
2022/02/18 09:22:06;;;;;;;6.80;2.07;;;9.20;99.90;10.50;96566.00;;;;5139577;27;20212;-82
2022/02/18 09:24:55;;;;;;;7.00;2.77;;;9.40;99.90;10.70;96560.00;;;;5134195;27;20218;-82
2022/02/18 09:27:46;;;;;;;12.17;2.33;;;9.60;99.90;11.30;96564.00;;;;5129033;27;20198;-82
2022/02/18 09:30:37;;;;;;;7.30;1.97;;;9.60;99.90;11.70;96554.00;;;;5124172;27;20202;-82
2022/02/18 09:33:35;;;;;;;5.40;1.73;;;10.00;99.90;11.70;96558.00;;;;5115725;27;20594;-83
2022/02/18 09:36:24;;;;;;;6.23;2.83;;;10.20;99.90;12.10;96552.00;;;;5129176;27;20202;-81
2022/02/18 09:39:13;;;;;;;3.57;1.13;;;10.30;99.90;12.20;96542.00;;;;5131748;27;20502;-82
2022/02/18 09:42:02;;;;;;;4.27;1.37;;;10.60;99.90;12.10;96544.00;;;;5129330;27;20611;-82
2022/02/18 09:44:53;;;;;;;4.90;1.40;;;10.70;96.70;12.80;96554.00;;;;5129212;27;20229;-81
2022/02/18 09:47:43;;;;;;;7.03;1.70;;;10.90;95.40;13.00;96545.00;;;;5128651;27;20585;-82
2022/02/18 09:50:32;;;;;;;3.73;1.50;;;11.10;94.20;13.20;96551.00;;;;5126887;27;20194;-82
2022/02/18 09:53:38;;;;;;;5.30;1.67;;;11.30;92.60;13.00;96561.00;;;;5127746;27;20201;-82
2022/02/18 09:56:27;;;;;;;2.43;1.40;;;11.50;93.40;13.50;96560.00;;;;5128517;27;20679;-81
2022/02/18 09:59:16;;;;;;;6.30;1.70;;;11.70;92.90;13.90;96561.00;;;;5109706;27;20203;-81
2022/02/18 10:02:06;;;;;;;4.13;1.10;;;11.90;92.60;14.20;96547.00;;;;5110280;28;20450;-81
2022/02/18 10:04:55;;;;;;;5.70;1.73;;;12.10;93.10;14.50;96550.00;;;;5112177;28;20218;-83
2022/02/18 10:08:10;;;;;;;12.43;1.87;;;12.40;92.00;14.70;96542.00;;;;5114595;27;20690;-81
2022/02/18 10:11:04;;;;;;;4.50;1.87;;;12.60;91.10;14.80;96531.00;;;;5104159;28;20202;-82
2022/02/18 10:13:55;;;;;;;6.57;2.10;;;12.90;88.10;15.00;96541.00;;;;5113958;27;20190;-82
2022/02/18 10:16:44;;;;;;;7.93;2.17;;;13.00;85.80;15.10;96548.00;;;;5123667;27;20206;-82
2022/02/18 10:19:35;;;;;;;4.67;1.50;;;13.20;83.20;15.40;96548.00;;;;5110351;28;20199;-83
2022/02/18 10:22:25;;;;;;;7.30;2.00;;;13.40;82.40;15.70;96544.00;;;;5106820;28;20199;-82
2022/02/18 10:25:24;;;;;;;7.63;1.57;;;13.50;81.90;15.70;96538.00;;;;5113617;27;20234;-82
2022/02/18 10:28:16;;;;;;;5.03;1.63;;;13.80;79.80;15.30;96527.00;;;;5105145;27;20197;-83
2022/02/18 10:31:07;;;;;;;5.33;1.60;;;13.80;73.20;15.70;96521.00;;;;5118628;27;20202;-82
2022/02/18 10:34:04;;;;;;;5.07;1.87;;;14.00;74.40;15.30;96507.00;;;;5110849;28;20199;-82
2022/02/18 10:36:54;;;;;;;5.93;2.37;;;14.00;69.40;15.20;96497.00;;;;5109250;28;20198;-82
2022/02/18 10:39:43;;;;;;;3.80;1.87;;;14.00;68.00;15.80;96497.00;;;;5097324;28;20205;-82
2022/02/18 10:42:32;;;;;;;3.47;1.47;;;14.10;65.20;16.50;96502.00;;;;5103024;28;20664;-82
2022/02/18 10:45:23;;;;;;;5.90;1.30;;;14.50;65.50;17.10;96507.00;;;;5091854;28;20231;-83
2022/02/18 10:48:14;;;;;;;2.57;0.87;;;14.80;65.30;16.60;96493.00;;;;5110115;28;20213;-82
2022/02/18 10:51:14;;;;;;;0.73;0.73;;;15.10;60.20;16.10;96489.00;;;;5099284;28;20199;-82
2022/02/18 10:54:10;;;;;;;3.13;1.07;;;15.10;58.20;16.60;96479.00;;;;5097382;28;20207;-82
2022/02/18 10:57:19;;;;;;;2.30;1.00;;;15.20;58.80;16.60;96471.00;;;;5125914;28;20206;-83
2022/02/18 11:00:16;;;;;;;4.23;1.33;;;15.10;57.50;15.90;96461.00;;;;5123099;28;20213;-83
2022/02/18 11:03:05;;;;;;;7.87;1.93;;;15.10;57.50;16.80;96456.00;;;;5114460;28;20199;-82
2022/02/18 11:05:55;;;;;;;5.20;1.53;;;15.10;58.40;17.30;96431.00;;;;5113287;28;20707;-82
2022/02/18 11:09:07;;;;;;;3.47;1.40;;;15.30;58.00;18.30;96432.00;;;;5112301;28;20198;-83
2022/02/18 11:11:58;;;;;;;11.10;1.67;;;15.80;58.20;19.30;96424.00;;;;5110767;27;20212;-82
2022/02/18 11:14:51;;;;;;;1.17;1.00;;;16.40;58.90;19.40;96416.00;;;;5123880;27;20229;-82
2022/02/18 11:17:40;;;;;;;3.20;1.30;;;17.00;57.60;19.70;96423.00;;;;5113361;27;20218;-82
2022/02/18 11:20:29;;;;;;;13.70;2.67;;;17.50;56.50;19.80;96421.00;;;;5117327;27;20198;-83
2022/02/18 11:23:18;;;;;;;6.10;1.33;;;17.80;55.50;19.40;96418.00;;;;5107877;27;20201;-82
2022/02/18 11:26:08;;;;;;;8.20;1.63;;;17.90;53.90;19.40;96413.00;;;;5112296;27;20221;-81
2022/02/18 11:28:59;;;;;;;2.60;1.77;;;18.00;53.80;19.70;96396.00;;;;5103425;27;20199;-82
2022/02/18 11:31:51;;;;;;;4.87;1.47;;;18.00;53.30;19.80;96404.00;;;;5104819;27;20210;-82
2022/02/18 11:35:01;;;;;;;3.40;1.50;;;18.10;52.70;20.00;96396.00;;;;5107412;27;20721;-82
2022/02/18 11:38:27;;;;;;;2.60;1.57;;;18.10;53.00;20.50;96392.00;;;;5098890;28;20582;-81
2022/02/18 11:41:35;;;;;;;3.87;1.37;;;18.40;52.70;21.10;96405.00;;;;5118497;27;20586;-83
2022/02/18 11:44:34;;;;;;;3.17;1.87;;;18.80;53.10;21.30;96386.00;;;;5109934;28;20699;-81
2022/02/18 11:47:24;;;;;;;3.03;1.43;;;19.10;52.40;22.00;96375.00;;;;5107609;28;20247;-82
2022/02/18 11:50:16;;;;;;;5.67;1.10;;;19.60;52.20;22.20;96381.00;;;;5123288;28;20210;-81
2022/02/18 11:53:06;;;;;;;2.77;1.00;;;19.90;50.10;20.40;96379.00;;;;5118174;27;20199;-82
2022/02/18 11:55:55;;;;;;;3.67;1.20;;;20.30;47.90;21.30;96365.00;;;;5114314;28;20226;-81
2022/02/18 11:58:53;;;;;;;3.27;1.10;;;20.30;48.00;21.80;96347.00;;;;5101088;28;20226;-82
2022/02/18 12:02:04;;;;;;;1.67;1.00;;;20.30;48.10;21.10;96351.00;;;;5112355;28;20199;-82
2022/02/18 12:05:08;;;;;;;2.37;1.10;;;20.50;47.30;20.80;96354.00;;;;5111278;28;20235;-81
2022/02/18 12:07:57;;;;;;;5.37;1.40;;;20.40;46.80;19.90;96331.00;;;;5120196;27;20281;-81
2022/02/18 12:10:55;;;;;;;5.03;2.10;;;19.80;46.60;21.80;96345.00;;;;5113752;28;20252;-81
2022/02/18 12:13:54;;;;;;;3.63;1.67;;;19.80;47.90;22.20;96326.00;;;;5128371;27;20191;-81
2022/02/18 12:16:43;;;;;;;2.90;1.57;;;20.00;47.40;20.10;96318.00;;;;5114580;28;20231;-83
2022/02/18 12:19:34;;;;;;;2.70;1.17;;;20.00;47.00;19.10;96313.00;;;;5114972;28;20823;-81
2022/02/18 12:22:34;;;;;;;3.43;1.10;;;20.40;46.60;21.30;96311.00;;;;5111542;27;20202;-82
2022/02/18 12:25:30;;;;;;;4.90;1.70;;;20.30;47.50;23.10;96302.00;;;;5122433;27;20681;-81
2022/02/18 12:28:22;;;;;;;2.33;1.17;;;20.70;47.80;23.90;96310.00;;;;5108918;27;20197;-82
2022/02/18 12:31:13;;;;;;;3.57;1.40;;;21.40;47.80;23.80;96316.00;;;;5103692;27;20661;-81
2022/02/18 12:34:02;;;;;;;2.97;1.53;;;21.90;47.20;23.10;96313.00;;;;5107958;28;20200;-82
2022/02/18 12:36:54;;;;;;;3.27;1.60;;;22.10;45.60;21.00;96274.00;;;;5122434;27;20209;-82
2022/02/18 12:39:45;;;;;;;2.80;1.50;;;22.10;44.00;23.80;96287.00;;;;5096689;28;20212;-82
2022/02/18 12:42:36;;;;;;;6.53;1.90;;;22.10;45.40;24.50;96278.00;;;;5103794;28;20240;-82
2022/02/18 12:45:45;;;;;;;5.80;1.70;;;22.60;45.10;25.20;96283.00;;;;5112537;28;20235;-82
2022/02/18 12:48:38;;;;;;;3.47;1.50;;;23.00;45.50;25.30;96271.00;;;;5113174;28;20216;-81
2022/02/18 12:51:27;;;;;;;4.33;1.13;;;23.40;44.60;25.70;96253.00;;;;5112334;28;20208;-83